Latest Weather Observations for Parndana

IDS60801

Issued at 6:35 pm CST Thursday 28 August 2014 (issued every 30 minutes, with the page automatically refreshed every 10 minutes)

About weather observations | Map of weather stations | Latest weather observations for SA | Other Formats
Station Details ID: 022843 Name: PARNDANA CFS AWS Lat: -35.79 Lon: 137.25 Height: 165.0 m
Data from the previous 72 hours. | See also: Recent months at Parndana
Date/Time
CST
Temp
°C
App
Temp
°C
Dew
Point
Rel
Hum
%
Delta-T
°C
Wind Press
QNH
hPa
Press
MSL
hPa
Rain
since 9 am
mm
Dir
 
Spd
km/h
Gust
km/h
Spd
kts
Gust
kts
28/06:30pm 15.3 15.0 8.5 64 3.5 W 0 0 0 0 - - 0.0
28/06:00pm 15.5 15.2 8.5 63 3.6 W 0 0 0 0 - - 0.0
28/05:30pm 17.3 16.8 9.2 59 4.2 W 2 4 1 2 - - 0.0
28/05:00pm 18.1 16.9 9.7 58 4.5 NNW 6 9 3 5 - - 0.0
28/04:30pm 18.6 16.0 9.4 55 4.9 NNW 13 17 7 9 - - 0.0
28/04:00pm 19.1 16.6 9.6 54 5.1 NNW 13 19 7 10 - - 0.0
28/03:30pm 19.2 16.3 9.7 54 5.1 N 15 19 8 10 - - 0.0
28/03:00pm 19.4 16.4 9.3 52 5.4 N 15 22 8 12 - - 0.0
28/02:30pm 19.2 15.5 9.4 53 5.2 N 19 26 10 14 - - 0.0
28/02:00pm 19.4 15.7 9.3 52 5.4 N 19 26 10 14 - - 0.0
28/01:30pm 19.1 15.3 9.9 55 4.9 N 20 26 11 14 - - 0.0
28/01:00pm 19.3 15.6 10.3 56 4.9 N 20 30 11 16 - - 0.0
28/12:30pm 19.3 16.1 10.0 55 5.0 N 17 24 9 13 - - 0.0
28/12:00pm 19.1 15.3 9.0 52 5.3 N 19 24 10 13 - - 0.0
28/11:30am 19.2 16.1 8.8 51 5.5 N 15 26 8 14 - - 0.0
28/11:00am 18.5 14.6 9.3 55 4.9 NNW 20 28 11 15 - - 0.0
28/10:30am 18.1 14.7 10.5 61 4.1 N 19 24 10 13 - - 0.0
28/10:00am 17.1 14.5 10.7 66 3.4 N 15 20 8 11 - - 0.0
28/09:30am 15.6 13.3 10.6 72 2.7 N 13 19 7 10 - - 0.0
28/09:00am 15.0 12.9 9.8 71 2.7 N 11 15 6 8 - - 0.0
28/08:30am 13.9 12.2 8.5 70 2.7 N 7 11 4 6 - - 0.0
28/08:00am 12.8 9.8 7.9 72 2.4 N 13 17 7 9 - - 0.0
28/07:30am 11.3 8.5 6.8 74 2.2 N 11 13 6 7 - - 0.0
28/07:00am 10.3 8.0 5.5 72 2.2 N 7 9 4 5 - - 0.0
28/06:30am 9.4 6.9 4.8 73 2.1 NW 7 7 4 4 - - 0.0
28/06:00am 7.6 4.5 3.8 77 1.6 NW 9 9 5 5 - - 0.0
28/05:30am 8.2 5.0 3.1 70 2.2 NNW 9 9 5 5 - - 0.0
28/05:00am 9.5 6.7 3.3 65 2.7 NNW 7 9 4 5 - - 0.0
28/04:30am 11.2 8.6 4.2 62 3.2 N 7 9 4 5 - - 0.0
28/04:00am 9.9 6.9 3.9 66 2.7 N 9 11 5 6 - - 0.0
28/03:30am 9.9 6.9 4.1 67 2.6 N 9 11 5 6 - - 0.0
28/03:00am 10.0 7.2 5.0 71 2.3 N 9 11 5 6 - - 0.0
28/02:30am 9.3 6.7 6.2 81 1.4 N 9 11 5 6 - - 0.0
28/02:00am 9.6 7.7 7.4 86 1.1 N 7 9 4 5 - - 0.0
28/01:30am 9.9 8.0 7.5 85 1.2 N 7 9 4 5 - - 0.0
28/01:00am 9.0 6.3 7.3 89 0.8 N 11 13 6 7 - - 0.0
28/12:30am 8.4 6.5 6.9 90 0.7 N 6 6 3 3 - - 0.0
28/12:00am 9.8 8.2 8.1 89 0.8 N 6 6 3 3 - - 0.0
 
Date/Time
CST
Temp
°C
App
Temp
°C
Dew
Point
Rel
Hum
%
Delta-T
°C
Wind Press
QNH
hPa
Press
MSL
hPa
Rain
since 9 am
mm
Dir
 
Spd
km/h
Gust
km/h
Spd
kts
Gust
kts
27/11:30pm 8.6 7.2 7.1 90 0.7 N 4 6 2 3 - - 0.0
27/11:00pm 9.3 8.0 7.6 89 0.8 NNE 4 6 2 3 - - 0.0
27/10:30pm 10.3 10.0 8.6 89 0.8 CALM 0 4 0 2 - - 0.0
27/10:00pm 10.3 10.1 8.9 91 0.7 CALM 0 0 0 0 - - 0.0
27/09:30pm 10.1 9.0 8.4 89 0.8 SSW 4 6 2 3 - - 0.0
27/09:00pm 9.6 8.1 8.5 93 0.5 SSW 6 7 3 4 - - 0.0
27/08:30pm 9.6 7.9 8.5 93 0.5 SSW 7 7 4 4 - - 0.0
27/08:00pm 10.6 9.1 8.5 87 1.0 SSW 6 7 3 4 - - 0.0
27/07:30pm 11.4 9.7 8.4 82 1.5 SSW 7 7 4 4 - - 0.0
27/07:00pm 12.2 10.3 7.5 73 2.3 S 7 7 4 4 - - 0.0
27/06:30pm 12.3 10.6 8.2 76 2.0 S 7 9 4 5 - - 0.0
27/06:00pm 13.4 12.1 9.8 79 1.9 S 7 11 4 6 - - 0.0
27/05:30pm 16.6 14.8 5.6 48 5.3 NNW 4 6 2 3 - - 0.0
27/05:00pm 16.9 14.8 5.8 48 5.4 N 6 7 3 4 - - 0.0
27/04:30pm 17.8 15.4 5.1 43 6.2 NW 7 9 4 5 - - 0.0
27/04:00pm 17.9 15.1 5.2 43 6.2 NW 9 13 5 7 - - 0.0
27/03:30pm 17.9 15.0 6.7 48 5.6 NW 11 15 6 8 - - 0.0
27/03:00pm 18.3 15.8 8.0 51 5.3 NW 11 15 6 8 - - 0.0
27/02:30pm 18.4 15.9 8.4 52 5.2 NNW 11 17 6 9 - - 0.0
27/02:00pm 18.3 15.5 6.8 47 5.8 N 11 15 6 8 - - 0.0
27/01:30pm 18.2 15.9 7.3 49 5.5 N 9 13 5 7 - - 0.0
27/01:00pm 18.0 14.9 8.8 55 4.8 N 15 20 8 11 - - 0.0
27/12:30pm 17.4 14.2 8.3 55 4.7 N 15 19 8 10 - - 0.0
27/12:00pm 17.2 14.1 8.9 58 4.3 N 15 19 8 10 - - 0.0
27/11:30am 17.0 13.9 8.9 59 4.2 N 15 19 8 10 - - 0.0
27/11:00am 16.3 12.8 8.8 61 3.9 N 17 22 9 12 - - 0.0
27/10:30am 15.3 13.2 9.9 70 2.8 N 11 15 6 8 - - 0.0
27/10:00am 14.2 12.5 9.8 75 2.3 N 9 11 5 6 - - 0.0
27/09:30am 12.9 11.4 9.0 77 2.0 NNE 7 9 4 5 - - 0.0
27/09:00am 11.1 10.2 9.4 89 0.9 WNW 4 4 2 2 - - 0.2
27/08:30am 9.1 7.5 8.0 93 0.5 SW 6 9 3 5 - - 0.2
27/08:00am 8.4 6.6 7.0 91 0.7 N 6 7 3 4 - - 0.2
27/07:30am 6.4 4.6 5.2 92 0.5 NNW 4 6 2 3 - - 0.2
27/07:00am 8.2 5.8 6.8 91 0.7 N 9 11 5 6 - - 0.2
27/06:30am 7.9 5.5 7.0 94 0.4 N 9 11 5 6 - - 0.0
27/06:00am 7.9 5.6 7.5 97 0.2 N 9 11 5 6 - - 0.0
27/05:30am 7.7 5.0 7.4 98 0.1 N 11 13 6 7 - - 0.0
27/05:00am 8.1 5.9 7.8 98 0.1 N 9 11 5 6 - - 0.0
27/04:30am 8.1 5.9 7.8 98 0.1 N 9 11 5 6 - - 0.0
27/04:00am 8.1 5.5 7.7 97 0.2 N 11 13 6 7 - - 0.0
27/03:30am 7.6 4.8 7.0 96 0.3 N 11 13 6 7 - - 0.0
27/03:00am 6.8 3.4 5.9 94 0.4 N 13 15 7 8 - - 0.0
27/02:30am 6.0 2.4 5.0 93 0.4 NNE 13 15 7 8 - - 0.0
27/02:00am 5.9 2.2 4.7 92 0.5 NNE 13 13 7 7 - - 0.0
27/01:30am 6.5 3.7 5.1 91 0.6 NNE 9 11 5 6 - - 0.0
27/01:00am 5.2 3.0 3.5 89 0.7 N 4 4 2 2 - - 0.0
27/12:30am 6.3 2.5 3.8 84 1.1 NE 13 19 7 10 - - 0.0
27/12:00am 8.0 5.1 4.9 81 1.4 ENE 9 9 5 5 - - 0.0
 
Date/Time
CST
Temp
°C
App
Temp
°C
Dew
Point
Rel
Hum
%
Delta-T
°C
Wind Press
QNH
hPa
Press
MSL
hPa
Rain
since 9 am
mm
Dir
 
Spd
km/h
Gust
km/h
Spd
kts
Gust
kts
26/11:30pm 8.0 5.6 5.3 83 1.2 E 7 9 4 5 - - 0.0
26/11:00pm 6.0 3.6 4.5 90 0.7 ESE 6 7 3 4 - - 0.0
26/10:30pm 6.3 3.9 4.3 87 0.9 E 6 7 3 4 - - 0.0
26/10:00pm 4.2 2.2 2.2 87 0.8 NNE 2 6 1 3 - - 0.0
26/09:30pm 7.6 5.3 4.6 81 1.3 ENE 6 7 3 4 - - 0.0
26/09:00pm 7.4 5.0 4.5 82 1.3 E 6 7 3 4 - - 0.0
26/08:30pm 8.6 7.7 6.2 85 1.1 CALM 0 0 0 0 - - 0.0
26/08:00pm 7.5 6.0 4.8 83 1.2 W 2 7 1 4 - - 0.0
26/07:30pm 8.0 7.0 5.6 85 1.1 CALM 0 0 0 0 - - 0.0
26/07:00pm 8.2 6.4 5.3 82 1.3 SE 4 4 2 2 - - 0.0
26/06:30pm 10.3 8.6 5.7 73 2.1 ENE 4 6 2 3 - - 0.0
26/06:00pm 11.5 9.3 5.4 66 2.8 NNE 6 7 3 4 - - 0.0
26/05:30pm 12.3 10.1 5.2 62 3.3 NNE 6 7 3 4 - - 0.0
26/05:00pm 13.4 9.8 5.1 57 3.9 NNE 13 17 7 9 - - 0.0
26/04:30pm 14.3 11.0 6.2 58 3.9 NNE 13 17 7 9 - - 0.0
26/04:00pm 14.7 11.8 6.5 58 4.0 N 11 15 6 8 - - 0.0
26/03:30pm 14.9 12.1 7.0 59 3.9 N 11 17 6 9 - - 0.0
26/03:00pm 14.9 12.2 7.2 60 3.8 N 11 17 6 9 - - 0.0
26/02:30pm 15.1 12.3 8.6 65 3.3 N 13 19 7 10 - - 0.0
26/02:00pm 14.9 11.7 8.4 65 3.3 N 15 19 8 10 - - 0.0
26/01:30pm 14.8 11.6 8.3 65 3.3 N 15 20 8 11 - - 0.0
26/01:00pm 15.1 12.0 8.8 66 3.2 N 15 19 8 10 - - 0.0
26/12:30pm 14.4 11.1 8.1 66 3.2 N 15 20 8 11 - - 0.0
26/12:00pm 14.4 12.1 9.0 70 2.8 N 11 17 6 9 - - 0.0
26/11:30am 13.9 11.9 8.7 71 2.6 N 9 13 5 7 - - 0.0
26/11:00am 12.9 10.1 8.6 75 2.2 NNE 13 19 7 10 - - 0.0
26/10:30am 12.8 10.0 8.7 76 2.1 NNE 13 19 7 10 - - 0.0
26/10:00am 12.3 9.3 9.3 82 1.5 NE 15 20 8 11 - - 0.0
26/09:30am 12.2 10.0 9.4 83 1.4 ENE 11 20 6 11 - - 0.0
26/09:00am 11.5 8.9 9.2 86 1.2 ENE 13 17 7 9 - - 0.0
26/08:30am 10.3 8.8 9.2 93 0.6 ENE 7 11 4 6 - - 0.0
26/08:00am 9.4 8.8 8.9 97 0.2 ENE 2 4 1 2 - - 0.0
26/07:30am 7.6 6.5 7.0 96 0.3 ENE 2 6 1 3 - - 0.0
26/07:00am 7.5 5.7 7.1 97 0.2 E 6 6 3 3 - - 0.0
26/06:30am 7.0 6.2 6.6 97 0.2 CALM 0 4 0 2 - - 0.0
26/06:00am 6.9 5.3 6.5 97 0.2 ENE 4 4 2 2 - - 0.0
26/05:30am 6.6 5.7 5.9 95 0.3 CALM 0 2 0 1 - - 0.0
26/05:00am 7.2 5.2 6.1 93 0.5 E 6 7 3 4 - - 0.0
26/04:30am 7.6 5.4 6.2 91 0.6 E 7 9 4 5 - - 0.0
26/04:00am 8.8 6.5 7.3 90 0.7 E 9 11 5 6 - - 0.0
26/03:30am 8.0 5.9 6.8 92 0.6 E 7 9 4 5 - - 0.0
26/03:00am 7.7 5.5 6.3 91 0.6 E 7 9 4 5 - - 0.0
26/02:30am 8.5 5.7 7.0 90 0.7 E 11 15 6 8 - - 0.0
26/02:00am 7.5 4.9 6.3 92 0.6 E 9 13 5 7 - - 0.0
26/01:30am 5.3 3.3 4.6 95 0.3 SSE 4 4 2 2 - - 0.0
26/01:00am 4.9 2.9 4.2 95 0.3 S 4 4 2 2 - - 0.0
26/12:30am 5.3 3.3 4.4 94 0.4 ESE 4 4 2 2 - - 0.0
26/12:00am 6.5 4.1 5.1 91 0.6 E 7 9 4 5 - - 0.0
 
Date/Time
CST
Temp
°C
App
Temp
°C
Dew
Point
Rel
Hum
%
Delta-T
°C
Wind Press
QNH
hPa
Press
MSL
hPa
Rain
since 9 am
mm
Dir
 
Spd
km/h
Gust
km/h
Spd
kts
Gust
kts
25/11:30pm 6.3 3.4 4.6 89 0.7 E 9 11 5 6 - - 0.0
25/11:00pm 6.8 4.6 5.4 91 0.6 E 6 7 3 4 - - 0.0
25/10:30pm 6.2 3.3 4.7 90 0.7 E 9 11 5 6 - - 0.0
25/10:00pm 6.4 3.5 4.6 88 0.8 E 9 11 5 6 - - 0.0
25/09:30pm 7.0 4.2 5.3 89 0.8 ESE 9 11 5 6 - - 0.0
25/09:00pm 6.9 4.2 5.4 90 0.7 ESE 9 11 5 6 - - 0.0
25/08:30pm 7.6 4.5 5.6 87 0.9 ESE 11 15 6 8 - - 0.0
25/08:00pm 8.6 4.9 6.4 86 1.0 E 15 20 8 11 - - 0.0
25/07:30pm 7.6 3.8 5.9 89 0.8 ESE 15 19 8 10 - - 0.0
25/07:00pm 8.9 4.9 6.7 86 1.0 SE 17 20 9 11 - - 0.0

Other Formats:

Comma delimited format used in spreadsheet applications
http://www.bom.gov.au/fwo/IDS60801/IDS60801.94807.axf

JavaScript Object Notation format (JSON) in row-major order
http://www.bom.gov.au/fwo/IDS60801/IDS60801.94807.json